Time;durP1;ratioP1;P1;durP2;ratioP2;P2;SDS_P1;SDS_P2;PMS_P1;PMS_P2;Temp;Humidity;BMP_temperature;BMP_pressure;BME280_temperature;BME280_humidity;BME280_pressure;Samples;Min_cycle;Max_cycle;Signal;HPM_P1;HPM_P2
2022/01/24 00:01:51;;;;;;;3.60;1.87;;;4.50;65.60;;;;;;6259526;28;20199;-58
2022/01/24 00:04:52;;;;;;;2.07;1.40;;;4.50;65.60;;;;;;6234217;28;20195;-58
2022/01/24 00:07:53;;;;;;;1.23;1.03;;;4.50;65.60;;;;;;6259163;28;20181;-58
2022/01/24 00:10:54;;;;;;;3.13;1.37;;;4.40;65.70;;;;;;6258646;28;20230;-57
2022/01/24 00:26:47;;;;;;;3.87;2.07;;;4.30;66.30;;;;;;6220180;28;20300;-58
2022/01/24 00:29:48;;;;;;;4.07;2.03;;;4.30;66.90;;;;;;6250281;28;20271;-59
2022/01/24 00:32:49;;;;;;;3.30;2.53;;;4.30;66.90;;;;;;6255965;28;20239;-59
2022/01/24 00:35:50;;;;;;;4.07;2.30;;;4.20;66.90;;;;;;6249545;28;20201;-59
2022/01/24 00:38:51;;;;;;;3.63;2.03;;;4.20;67.10;;;;;;6233887;28;20275;-59
2022/01/24 00:48:27;;;;;;;3.67;2.00;;;4.10;68.00;;;;;;6254350;28;20226;-59
2022/01/24 00:54:47;;;;;;;4.60;3.37;;;4.20;67.20;;;;;;6265170;28;20191;-59
2022/01/24 00:57:48;;;;;;;6.50;3.37;;;4.10;67.70;;;;;;6238720;28;20285;-60
2022/01/24 01:00:49;;;;;;;4.27;2.97;;;4.00;68.40;;;;;;6240686;28;20231;-57
2022/01/24 01:03:50;;;;;;;6.50;3.10;;;3.90;68.70;;;;;;6240890;28;20188;-56
2022/01/24 01:06:53;;;;;;;3.87;2.67;;;4.00;68.80;;;;;;6241105;28;20246;-58
2022/01/24 01:18:08;;;;;;;4.07;3.20;;;4.00;68.60;;;;;;6290273;28;20194;-60
2022/01/24 01:19:54;;;;;;;5.70;2.83;;;4.00;68.90;;;;;;6270450;28;20249;-58
2022/01/24 01:22:55;;;;;;;5.97;3.13;;;3.90;69.20;;;;;;6240959;28;20186;-59
2022/01/24 01:25:59;;;;;;;6.67;3.00;;;3.90;69.30;;;;;;6227552;28;20220;-59
2022/01/24 01:29:23;;;;;;;5.57;3.23;;;3.90;69.20;;;;;;6233002;28;20727;-60
2022/01/24 01:58:14;;;;;;;8.20;6.03;;;4.10;68.90;;;;;;6216101;28;20189;-57
2022/01/24 02:01:15;;;;;;;10.80;7.80;;;4.10;69.00;;;;;;6231563;28;20242;-57
2022/01/24 02:04:16;;;;;;;13.53;8.60;;;4.20;69.10;;;;;;6234329;28;20186;-59
2022/01/24 02:07:17;;;;;;;11.43;7.23;;;4.00;69.70;;;;;;6239771;28;20197;-59
2022/01/24 02:10:20;;;;;;;10.73;6.70;;;3.90;70.20;;;;;;6250738;28;20193;-59
2022/01/24 02:13:23;;;;;;;8.73;6.67;;;3.90;70.50;;;;;;6261344;28;20554;-59
2022/01/24 02:26:29;;;;;;;13.73;8.50;;;3.90;70.00;;;;;;6256287;28;20215;-59
2022/01/24 02:32:30;;;;;;;11.80;9.27;;;4.00;70.20;;;;;;6271366;28;20198;-59
2022/01/24 02:35:31;;;;;;;15.20;10.50;;;3.90;70.10;;;;;;6220096;28;20289;-60
2022/01/24 02:38:59;;;;;;;13.87;10.77;;;3.80;70.60;;;;;;6237626;28;20345;-60
2022/01/24 02:48:40;;;;;;;13.50;10.03;;;3.60;71.70;;;;;;6252306;28;20199;-59
2022/01/24 02:51:47;;;;;;;14.57;11.20;;;3.80;71.50;;;;;;6219435;28;20177;-59
2022/01/24 02:54:49;;;;;;;14.77;9.63;;;3.80;71.40;;;;;;6219668;28;20179;-58
2022/01/24 02:57:49;;;;;;;13.70;10.10;;;3.60;71.80;;;;;;6251983;28;20205;-54
2022/01/24 03:00:52;;;;;;;13.03;10.53;;;3.60;72.00;;;;;;6242813;28;20304;-57
2022/01/24 03:03:53;;;;;;;12.37;10.10;;;3.60;72.20;;;;;;6244157;28;20202;-56
2022/01/24 03:06:54;;;;;;;11.90;10.20;;;3.60;72.00;;;;;;6244155;28;20181;-55
2022/01/24 03:09:55;;;;;;;12.13;9.40;;;3.50;72.30;;;;;;6260484;28;20205;-57
2022/01/24 03:16:15;;;;;;;11.10;8.07;;;3.60;72.90;;;;;;6238138;28;20199;-56
2022/01/24 03:19:16;;;;;;;13.07;8.67;;;3.70;72.20;;;;;;6257389;28;20342;-56
2022/01/24 03:22:17;;;;;;;13.17;8.97;;;3.70;72.30;;;;;;6260075;28;20188;-58
2022/01/24 03:25:18;;;;;;;11.43;8.63;;;3.70;72.50;;;;;;6243561;28;20280;-58
2022/01/24 03:28:19;;;;;;;12.10;8.03;;;3.70;72.40;;;;;;6243793;28;20251;-59
2022/01/24 03:31:22;;;;;;;11.47;8.20;;;3.60;72.60;;;;;;6243848;28;20182;-57
2022/01/24 03:34:23;;;;;;;11.13;8.90;;;3.70;72.90;;;;;;6242957;28;20204;-58
2022/01/24 03:37:24;;;;;;;12.23;9.57;;;3.60;73.10;;;;;;6242813;28;20197;-59
2022/01/24 03:40:24;;;;;;;12.50;9.63;;;3.70;73.20;;;;;;6261680;28;20293;-58
2022/01/24 03:43:25;;;;;;;14.00;9.80;;;3.80;72.70;;;;;;6275166;28;20229;-59
2022/01/24 03:46:28;;;;;;;12.97;9.33;;;3.80;73.00;;;;;;6242669;28;20209;-59
2022/01/24 03:49:45;;;;;;;15.00;10.00;;;3.70;73.00;;;;;;6237473;28;20194;-57
2022/01/24 03:52:46;;;;;;;12.27;9.53;;;3.70;73.30;;;;;;6265264;28;20237;-59
2022/01/24 03:55:47;;;;;;;11.63;9.13;;;3.60;73.40;;;;;;6251850;28;20182;-59
2022/01/24 03:58:47;;;;;;;11.63;9.13;;;3.50;74.10;;;;;;6242930;28;20196;-60
2022/01/24 04:01:48;;;;;;;12.40;9.00;;;3.50;74.40;;;;;;6242804;28;20183;-60
2022/01/24 04:04:50;;;;;;;9.90;7.83;;;3.40;74.60;;;;;;6239364;28;20228;-58
2022/01/24 04:07:51;;;;;;;15.37;10.60;;;3.40;74.90;;;;;;6234052;28;20186;-60
2022/01/24 04:10:55;;;;;;;12.93;9.80;;;3.50;74.90;;;;;;6222711;28;20200;-60
2022/01/24 04:14:09;;;;;;;15.23;10.03;;;3.50;75.00;;;;;;6249214;28;20191;-60
2022/01/24 04:23:36;;;;;;;15.03;10.70;;;3.80;74.60;;;;;;6244402;28;20233;-59
2022/01/24 04:26:38;;;;;;;16.00;12.17;;;3.60;74.50;;;;;;6263347;28;20264;-59
2022/01/24 04:29:39;;;;;;;15.07;10.80;;;3.50;74.60;;;;;;6266792;28;20266;-59
2022/01/24 04:32:40;;;;;;;15.43;10.90;;;3.30;75.60;;;;;;6275426;28;20209;-59
2022/01/24 04:35:41;;;;;;;13.40;10.93;;;3.40;76.20;;;;;;6249625;28;20220;-60
2022/01/24 04:38:43;;;;;;;12.83;10.00;;;3.40;76.20;;;;;;6259945;28;20202;-59
2022/01/24 04:41:47;;;;;;;17.03;11.80;;;3.30;76.70;;;;;;6228818;28;20285;-59
2022/01/24 04:45:23;;;;;;;16.33;11.53;;;3.30;76.80;;;;;;6248200;28;20182;-55
2022/01/24 04:57:39;;;;;;;20.77;13.23;;;3.40;77.40;;;;;;6252959;28;20191;-57
2022/01/24 05:00:40;;;;;;;21.90;12.77;;;3.40;77.40;;;;;;6244272;28;20233;-56
2022/01/24 05:03:41;;;;;;;19.20;13.40;;;3.30;78.00;;;;;;6232075;28;20320;-56
2022/01/24 05:06:41;;;;;;;19.23;13.30;;;3.30;78.30;;;;;;6223308;28;20189;-54
2022/01/24 05:25:58;;;;;;;20.40;13.37;;;3.10;79.20;;;;;;6235202;28;20195;-57
2022/01/24 05:28:58;;;;;;;22.97;14.90;;;3.10;79.30;;;;;;6241147;28;20221;-59
2022/01/24 05:31:59;;;;;;;19.73;13.50;;;3.20;79.50;;;;;;6235382;28;20193;-59
2022/01/24 05:35:00;;;;;;;20.57;13.07;;;3.10;79.40;;;;;;6247940;28;20288;-59
2022/01/24 05:38:01;;;;;;;22.80;14.50;;;3.00;79.80;;;;;;6262371;28;20197;-59
2022/01/24 05:41:02;;;;;;;22.70;15.03;;;3.10;79.80;;;;;;6244907;28;20225;-59
2022/01/24 05:44:07;;;;;;;22.97;14.53;;;3.20;79.60;;;;;;6267479;28;20234;-58
2022/01/24 05:47:08;;;;;;;19.63;12.93;;;3.10;79.40;;;;;;6225180;28;20185;-60
2022/01/24 05:50:09;;;;;;;18.53;12.50;;;3.10;79.90;;;;;;6250208;28;20202;-59
2022/01/24 05:53:10;;;;;;;16.17;11.50;;;3.00;79.80;;;;;;6238560;28;20211;-58
2022/01/24 05:56:10;;;;;;;15.27;11.40;;;2.90;80.00;;;;;;6236388;28;20194;-59
2022/01/24 05:59:11;;;;;;;17.00;11.47;;;2.90;80.00;;;;;;6256204;28;20275;-59
2022/01/24 06:02:12;;;;;;;12.77;9.23;;;2.80;80.00;;;;;;6249587;28;20193;-58
2022/01/24 06:05:13;;;;;;;12.60;9.17;;;2.80;80.10;;;;;;6260474;28;20273;-58
2022/01/24 06:08:14;;;;;;;12.13;9.33;;;2.80;79.50;;;;;;6244446;28;20216;-59
2022/01/24 06:11:15;;;;;;;13.03;9.50;;;2.80;79.80;;;;;;6228489;28;20193;-59
2022/01/24 06:14:16;;;;;;;11.83;8.47;;;2.90;79.40;;;;;;6234089;28;20194;-59
2022/01/24 06:17:17;;;;;;;12.17;8.27;;;2.90;79.60;;;;;;6265226;28;20193;-59
2022/01/24 06:20:18;;;;;;;14.70;8.23;;;2.90;79.20;;;;;;6279669;28;20209;-59
2022/01/24 06:23:20;;;;;;;10.47;7.77;;;2.80;79.20;;;;;;6257954;28;20189;-58
2022/01/24 06:26:21;;;;;;;14.23;9.20;;;2.60;79.60;;;;;;6219259;28;20218;-58
2022/01/24 06:29:22;;;;;;;13.00;8.83;;;2.80;80.10;;;;;;6244292;28;20196;-59
2022/01/24 06:32:23;;;;;;;12.60;8.90;;;2.70;79.80;;;;;;6249501;28;20293;-59
2022/01/24 06:35:23;;;;;;;12.63;8.07;;;2.70;80.00;;;;;;6231490;28;20197;-60
2022/01/24 06:38:25;;;;;;;11.13;8.27;;;2.60;80.20;;;;;;6264777;28;20191;-59
2022/01/24 06:41:32;;;;;;;11.13;8.37;;;2.60;79.90;;;;;;6253017;28;20218;-59
2022/01/24 06:44:34;;;;;;;13.23;8.07;;;2.50;80.20;;;;;;6234145;28;20230;-58
2022/01/24 06:47:35;;;;;;;10.80;7.30;;;2.50;80.00;;;;;;6272283;28;20197;-58
2022/01/24 06:50:36;;;;;;;11.27;7.40;;;2.40;80.10;;;;;;6228244;28;20218;-58
2022/01/24 06:53:38;;;;;;;10.20;7.00;;;2.30;80.20;;;;;;6276005;28;20232;-58
2022/01/24 06:56:38;;;;;;;9.90;6.80;;;2.20;80.90;;;;;;6231265;28;20285;-58
2022/01/24 06:59:41;;;;;;;11.17;6.80;;;2.20;81.40;;;;;;6262517;28;20210;-57
2022/01/24 07:02:42;;;;;;;12.30;7.37;;;2.20;81.40;;;;;;6231437;28;20197;-58
2022/01/24 07:05:43;;;;;;;10.33;7.30;;;2.10;81.70;;;;;;6244943;28;20194;-58
2022/01/24 07:08:43;;;;;;;12.20;8.27;;;2.10;81.90;;;;;;6251290;28;20194;-56
2022/01/24 07:11:44;;;;;;;10.70;7.50;;;2.40;81.80;;;;;;6241524;28;20196;-58
2022/01/24 07:14:45;;;;;;;13.27;8.83;;;2.40;81.20;;;;;;6276035;28;20201;-57
2022/01/24 07:21:06;;;;;;;13.10;8.13;;;2.30;82.10;;;;;;6237361;28;20249;-60
2022/01/24 07:24:07;;;;;;;10.73;7.83;;;2.30;82.20;;;;;;6266315;28;20322;-59
2022/01/24 07:27:08;;;;;;;13.60;8.67;;;2.20;82.90;;;;;;6228605;28;20202;-59
2022/01/24 07:30:09;;;;;;;12.77;8.33;;;2.30;82.40;;;;;;6259449;28;20221;-57
2022/01/24 07:33:10;;;;;;;14.97;8.97;;;2.30;81.90;;;;;;6252104;28;20248;-58
2022/01/24 07:36:11;;;;;;;16.23;9.50;;;2.20;83.30;;;;;;6231212;28;20208;-58
2022/01/24 07:39:13;;;;;;;14.80;9.70;;;2.20;83.50;;;;;;6260201;28;20221;-58
2022/01/24 07:42:26;;;;;;;14.97;10.03;;;2.00;83.50;;;;;;6247552;28;20275;-58
2022/01/24 07:45:27;;;;;;;15.00;9.57;;;1.90;83.90;;;;;;6240197;28;20244;-59
2022/01/24 07:48:28;;;;;;;12.10;8.97;;;1.80;84.00;;;;;;6259571;28;20194;-59
2022/01/24 07:51:29;;;;;;;13.90;10.00;;;1.80;84.30;;;;;;6243223;28;20217;-58
2022/01/24 07:54:30;;;;;;;13.40;9.07;;;2.00;83.50;;;;;;6252883;28;20189;-59
2022/01/24 07:57:31;;;;;;;14.33;10.17;;;1.80;83.90;;;;;;6250675;28;20204;-59
2022/01/24 08:00:33;;;;;;;12.47;9.27;;;1.80;84.60;;;;;;6224038;28;20269;-59
2022/01/24 08:03:33;;;;;;;12.70;8.73;;;1.80;84.30;;;;;;6229456;28;20199;-59
2022/01/24 08:06:34;;;;;;;11.53;8.97;;;1.80;84.50;;;;;;6268976;28;20251;-55
2022/01/24 08:09:35;;;;;;;14.50;9.70;;;1.80;84.80;;;;;;6234869;28;20208;-59
2022/01/24 08:12:38;;;;;;;12.97;9.30;;;1.80;85.10;;;;;;6252671;28;20190;-59
2022/01/24 08:15:39;;;;;;;11.47;8.87;;;1.80;84.90;;;;;;6252851;28;20187;-60
2022/01/24 08:18:40;;;;;;;11.20;8.50;;;1.80;84.80;;;;;;6269553;28;20208;-59
2022/01/24 08:21:43;;;;;;;13.37;9.90;;;1.80;85.30;;;;;;6240434;28;20221;-59
2022/01/24 08:24:47;;;;;;;12.27;9.43;;;1.70;84.80;;;;;;6238074;28;20189;-59
2022/01/24 08:27:48;;;;;;;13.07;8.23;;;1.60;84.80;;;;;;6235677;28;20210;-60
2022/01/24 08:30:48;;;;;;;12.30;8.30;;;1.60;84.30;;;;;;6240012;28;20198;-59
2022/01/24 08:33:49;;;;;;;15.00;9.33;;;1.70;84.30;;;;;;6227432;28;20296;-59
2022/01/24 08:36:50;;;;;;;13.40;9.33;;;1.60;84.30;;;;;;6245386;28;20181;-57
2022/01/24 08:39:51;;;;;;;11.03;8.07;;;1.50;85.20;;;;;;6257814;28;20213;-59
2022/01/24 08:42:58;;;;;;;13.70;9.33;;;1.50;85.10;;;;;;6247546;28;20237;-60
2022/01/24 08:45:59;;;;;;;12.00;8.20;;;1.50;84.90;;;;;;6240774;28;20217;-60
2022/01/24 08:49:00;;;;;;;12.83;8.03;;;1.40;84.70;;;;;;6241506;28;20247;-59
2022/01/24 08:52:01;;;;;;;12.10;8.10;;;1.60;83.50;;;;;;6251304;28;20224;-59
2022/01/24 08:55:02;;;;;;;9.73;7.57;;;1.60;84.10;;;;;;6241410;28;20201;-59
2022/01/24 08:58:05;;;;;;;14.27;8.40;;;1.60;83.40;;;;;;6257215;28;20229;-58
2022/01/24 09:01:06;;;;;;;10.03;7.40;;;1.50;83.60;;;;;;6257386;28;20218;-59
2022/01/24 09:04:07;;;;;;;12.93;8.23;;;1.40;83.70;;;;;;6270107;28;20201;-59
2022/01/24 09:07:09;;;;;;;8.57;6.90;;;1.40;84.10;;;;;;6240890;28;20190;-58
2022/01/24 09:10:12;;;;;;;11.50;7.77;;;1.50;83.60;;;;;;6290604;28;20181;-59
2022/01/24 09:13:13;;;;;;;10.63;7.87;;;1.40;83.30;;;;;;6257105;28;20265;-56
2022/01/24 09:16:14;;;;;;;11.17;6.77;;;1.40;83.70;;;;;;6256842;28;20209;-58
2022/01/24 09:19:15;;;;;;;9.90;7.23;;;1.30;82.50;;;;;;6257583;28;20224;-59
2022/01/24 09:22:16;;;;;;;13.17;7.70;;;1.40;83.00;;;;;;6240434;28;20222;-59
2022/01/24 09:25:18;;;;;;;11.47;8.23;;;1.50;82.60;;;;;;6257283;28;20181;-60
2022/01/24 09:28:19;;;;;;;11.27;7.73;;;1.40;82.90;;;;;;6254411;28;20286;-59
2022/01/24 09:31:22;;;;;;;11.77;8.03;;;1.70;82.20;;;;;;6253196;28;20189;-59
2022/01/24 09:34:23;;;;;;;9.47;6.93;;;1.70;81.30;;;;;;6240728;28;20193;-56
2022/01/24 09:37:24;;;;;;;9.53;6.70;;;1.60;82.10;;;;;;6240366;28;20276;-56
2022/01/24 09:40:25;;;;;;;11.10;7.57;;;1.50;82.70;;;;;;6229093;28;20236;-58
2022/01/24 09:43:26;;;;;;;11.80;7.70;;;1.50;82.90;;;;;;6233944;28;20268;-57
2022/01/24 09:46:28;;;;;;;11.10;7.30;;;1.40;82.50;;;;;;6240120;28;20239;-59
2022/01/24 09:49:28;;;;;;;9.33;7.50;;;1.50;81.60;;;;;;6240046;28;20201;-56
2022/01/24 09:52:29;;;;;;;10.70;7.23;;;1.50;82.70;;;;;;6233961;28;20207;-56
2022/01/24 09:55:30;;;;;;;13.50;8.83;;;1.60;81.50;;;;;;6250687;28;20197;-58
2022/01/24 09:58:32;;;;;;;11.27;7.47;;;1.60;81.90;;;;;;6256313;28;20216;-56
2022/01/24 10:01:34;;;;;;;12.70;8.20;;;1.50;81.00;;;;;;6240034;28;20275;-58
2022/01/24 10:04:35;;;;;;;12.73;7.77;;;1.50;81.50;;;;;;6239894;28;20201;-58
2022/01/24 10:07:39;;;;;;;10.53;7.03;;;1.60;80.10;;;;;;6239638;28;20254;-58
2022/01/24 10:10:48;;;;;;;12.27;7.53;;;1.60;81.10;;;;;;6256831;28;20194;-58
2022/01/24 10:17:14;;;;;;;13.40;8.23;;;1.60;80.30;;;;;;6234607;28;20298;-59
2022/01/24 10:20:17;;;;;;;11.67;6.93;;;1.50;80.90;;;;;;6239424;28;20213;-55
2022/01/24 10:23:24;;;;;;;11.30;8.17;;;1.40;80.60;;;;;;6240282;28;20201;-58
2022/01/24 10:26:25;;;;;;;10.77;8.37;;;1.30;80.70;;;;;;6256095;28;20182;-59
2022/01/24 10:29:26;;;;;;;12.57;7.97;;;1.40;81.30;;;;;;6244332;28;20251;-59
2022/01/24 10:32:36;;;;;;;12.40;8.53;;;1.50;82.00;;;;;;6243675;28;20198;-59
2022/01/24 10:35:46;;;;;;;10.50;7.57;;;1.80;81.70;;;;;;6289213;28;20190;-59
2022/01/24 10:38:55;;;;;;;12.70;7.70;;;1.80;80.50;;;;;;6278489;28;20185;-58
2022/01/24 10:45:31;;;;;;;11.77;7.97;;;1.90;78.90;;;;;;6244415;28;20239;-57
2022/01/24 10:48:40;;;;;;;12.47;8.53;;;1.90;79.70;;;;;;6221169;28;20268;-57
2022/01/24 10:51:46;;;;;;;11.47;7.40;;;1.90;79.70;;;;;;6251712;28;20198;-57
2022/01/24 10:54:49;;;;;;;12.23;8.23;;;1.90;79.90;;;;;;6239752;28;20190;-57
2022/01/24 10:57:57;;;;;;;13.70;7.80;;;1.90;79.30;;;;;;6244110;28;20197;-56
2022/01/24 11:00:58;;;;;;;10.67;7.50;;;1.90;78.10;;;;;;6260557;28;20210;-59
2022/01/24 11:04:05;;;;;;;10.80;7.50;;;1.80;78.40;;;;;;6238330;28;20280;-59
2022/01/24 11:07:05;;;;;;;11.00;7.30;;;1.80;79.00;;;;;;6260327;28;20197;-56
2022/01/24 11:10:07;;;;;;;12.07;8.80;;;1.80;79.60;;;;;;6276812;28;20194;-56
2022/01/24 11:13:09;;;;;;;12.87;10.07;;;1.90;79.30;;;;;;6243851;28;20233;-55
2022/01/24 11:16:09;;;;;;;12.93;9.17;;;2.10;79.40;;;;;;6268736;28;20645;-54
2022/01/24 11:19:17;;;;;;;13.43;9.90;;;2.20;79.10;;;;;;6292594;28;20221;-56
2022/01/24 11:22:24;;;;;;;13.50;9.73;;;2.20;79.50;;;;;;6242875;28;20191;-55
2022/01/24 11:25:34;;;;;;;13.53;8.80;;;2.10;79.20;;;;;;6242756;28;20195;-58
2022/01/24 11:28:35;;;;;;;13.37;9.70;;;2.00;79.10;;;;;;6219931;28;20182;-57
2022/01/24 11:31:56;;;;;;;13.30;9.20;;;2.10;79.30;;;;;;6259678;28;20626;-58
2022/01/24 11:34:58;;;;;;;13.67;9.37;;;2.10;79.10;;;;;;6243048;28;20247;-58
2022/01/24 11:37:59;;;;;;;14.47;8.20;;;2.10;79.00;;;;;;6243291;28;20261;-58
2022/01/24 11:41:34;;;;;;;10.73;7.67;;;2.00;79.30;;;;;;6242420;28;20221;-58
2022/01/24 11:44:50;;;;;;;10.13;7.70;;;2.10;78.90;;;;;;6245772;28;20226;-58
2022/01/24 11:47:51;;;;;;;13.77;9.60;;;2.00;78.10;;;;;;6251657;28;20191;-59
2022/01/24 11:51:16;;;;;;;9.43;7.50;;;2.10;78.50;;;;;;6229354;28;20205;-59
2022/01/24 11:54:42;;;;;;;11.73;8.53;;;2.10;78.00;;;;;;6242720;28;20288;-57
2022/01/24 11:57:50;;;;;;;11.77;8.50;;;2.00;77.70;;;;;;6248695;28;20195;-57
2022/01/24 12:00:54;;;;;;;12.13;8.60;;;2.10;77.30;;;;;;6272537;28;20309;-58
2022/01/24 12:03:54;;;;;;;12.27;8.20;;;2.00;77.40;;;;;;6258092;28;20220;-57
2022/01/24 12:07:15;;;;;;;10.40;8.13;;;2.00;77.30;;;;;;6238029;28;20198;-57
2022/01/24 12:10:46;;;;;;;13.27;8.90;;;2.10;77.70;;;;;;6250750;28;20198;-56
2022/01/24 12:14:35;;;;;;;11.97;8.93;;;2.10;76.90;;;;;;6290084;28;20243;-56
2022/01/24 12:17:51;;;;;;;13.27;8.90;;;2.00;77.90;;;;;;6270089;28;20213;-57
2022/01/24 12:20:57;;;;;;;11.77;7.60;;;2.00;78.70;;;;;;6228495;28;20219;-57
2022/01/24 12:24:07;;;;;;;11.17;7.90;;;2.00;78.60;;;;;;6264336;28;20182;-57
2022/01/24 12:27:08;;;;;;;10.73;7.67;;;2.00;78.90;;;;;;6257023;28;20193;-58
2022/01/24 12:30:09;;;;;;;10.47;8.27;;;2.00;78.60;;;;;;6250274;28;20190;-56
2022/01/24 12:33:10;;;;;;;14.07;8.53;;;2.10;77.10;;;;;;6235228;28;20186;-57
2022/01/24 12:36:13;;;;;;;12.13;8.93;;;2.20;77.40;;;;;;6244455;28;20197;-57
2022/01/24 12:39:20;;;;;;;13.17;8.40;;;2.10;77.30;;;;;;6238368;28;20219;-58
2022/01/24 12:42:33;;;;;;;9.63;8.07;;;2.20;77.00;;;;;;6271663;28;20230;-57
2022/01/24 12:48:56;;;;;;;9.07;7.03;;;2.00;78.30;;;;;;6253023;28;20198;-58
2022/01/24 12:52:02;;;;;;;11.03;8.50;;;1.90;78.10;;;;;;6261353;28;20202;-57
2022/01/24 12:55:04;;;;;;;10.70;7.47;;;1.90;77.80;;;;;;6264230;28;20191;-58
2022/01/24 12:58:05;;;;;;;10.27;8.07;;;1.90;78.30;;;;;;6245526;28;20201;-58
2022/01/24 13:01:21;;;;;;;11.57;8.63;;;1.90;79.40;;;;;;6227692;28;20225;-57
2022/01/24 13:04:35;;;;;;;12.07;8.00;;;2.00;79.20;;;;;;6257573;28;20193;-55
2022/01/24 13:07:38;;;;;;;10.70;7.67;;;1.90;79.00;;;;;;6278386;28;20187;-58
2022/01/24 13:10:38;;;;;;;10.20;7.17;;;1.90;78.80;;;;;;6228371;28;20197;-58
2022/01/24 13:14:16;;;;;;;9.97;7.20;;;1.90;79.00;;;;;;6240043;28;20309;-57
2022/01/24 13:21:06;;;;;;;9.83;7.23;;;2.20;77.80;;;;;;6243866;28;20232;-54
2022/01/24 13:24:06;;;;;;;11.20;7.53;;;2.20;75.80;;;;;;6247381;28;20285;-56
2022/01/24 13:27:09;;;;;;;8.63;7.17;;;2.00;77.20;;;;;;6229813;28;20209;-56
2022/01/24 13:30:18;;;;;;;10.17;7.23;;;2.10;76.90;;;;;;6235835;28;20204;-56
2022/01/24 13:33:22;;;;;;;10.33;7.20;;;2.10;76.10;;;;;;6260645;28;20190;-57
2022/01/24 13:36:23;;;;;;;9.60;6.33;;;2.00;75.20;;;;;;6250566;28;20204;-56
2022/01/24 13:39:25;;;;;;;12.17;7.57;;;1.80;77.30;;;;;;6241162;28;20209;-56
2022/01/24 13:42:25;;;;;;;12.50;7.87;;;1.80;77.10;;;;;;6229293;28;20317;-57
2022/01/24 13:45:26;;;;;;;10.20;8.57;;;1.90;77.90;;;;;;6242334;28;20196;-57
2022/01/24 13:48:27;;;;;;;10.67;7.97;;;1.90;77.00;;;;;;6230593;28;20206;-55
2022/01/24 13:51:35;;;;;;;10.63;7.37;;;2.10;76.40;;;;;;6259853;28;20190;-57
2022/01/24 13:54:37;;;;;;;11.23;8.70;;;2.00;76.40;;;;;;6265559;28;20211;-55
2022/01/24 13:57:47;;;;;;;10.97;8.23;;;2.20;76.30;;;;;;6227239;28;20247;-56
2022/01/24 14:00:57;;;;;;;12.77;8.53;;;2.00;76.30;;;;;;6244975;28;20278;-56
2022/01/24 14:03:59;;;;;;;12.10;9.20;;;2.00;76.80;;;;;;6229018;28;20189;-56
2022/01/24 14:07:05;;;;;;;12.07;8.57;;;2.00;77.30;;;;;;6255397;28;20201;-56
2022/01/24 14:10:12;;;;;;;13.73;8.67;;;2.10;76.30;;;;;;6270738;28;20191;-57
2022/01/24 14:13:20;;;;;;;12.27;7.77;;;2.10;75.80;;;;;;6274406;28;20280;-56
2022/01/24 14:19:58;;;;;;;14.23;9.10;;;1.90;77.40;;;;;;6258330;28;20214;-55
2022/01/24 14:22:59;;;;;;;11.13;8.57;;;2.00;77.40;;;;;;6263337;28;20299;-57
2022/01/24 14:26:19;;;;;;;12.87;9.57;;;2.10;77.50;;;;;;6243796;28;20201;-56
2022/01/24 14:29:20;;;;;;;14.63;10.00;;;2.20;76.60;;;;;;6240744;28;20189;-55
2022/01/24 14:32:23;;;;;;;12.33;9.80;;;2.20;76.90;;;;;;6236035;28;20284;-57
2022/01/24 14:35:26;;;;;;;11.37;8.30;;;2.00;77.90;;;;;;6236864;28;20199;-56
2022/01/24 14:38:48;;;;;;;14.77;8.93;;;2.00;77.90;;;;;;6243784;28;20317;-55
2022/01/24 14:41:49;;;;;;;12.57;8.70;;;2.20;78.00;;;;;;6244173;28;20234;-57
2022/01/24 14:44:53;;;;;;;12.00;9.07;;;2.30;78.10;;;;;;6256760;28;20224;-55
2022/01/24 14:48:05;;;;;;;13.37;8.83;;;2.30;77.80;;;;;;6258598;28;20186;-57
2022/01/24 14:51:05;;;;;;;11.40;8.73;;;2.20;77.90;;;;;;6243023;28;20221;-56
2022/01/24 14:54:10;;;;;;;15.93;10.50;;;2.00;77.80;;;;;;6225884;28;20198;-57
2022/01/24 14:57:13;;;;;;;11.00;8.30;;;2.10;78.00;;;;;;6250723;28;20200;-56
2022/01/24 15:00:14;;;;;;;13.77;9.77;;;2.10;78.40;;;;;;6235375;28;20222;-58
2022/01/24 15:03:15;;;;;;;14.67;9.60;;;2.10;78.40;;;;;;6235515;28;20194;-55
2022/01/24 15:06:17;;;;;;;14.00;9.90;;;2.20;77.60;;;;;;6244108;28;20198;-57
2022/01/24 15:09:24;;;;;;;11.93;8.67;;;2.20;76.90;;;;;;6249802;28;20190;-57
2022/01/24 15:12:25;;;;;;;11.40;8.80;;;1.90;77.70;;;;;;6259815;28;20216;-57
2022/01/24 15:15:26;;;;;;;14.27;9.97;;;1.80;78.40;;;;;;6242049;28;20185;-55
2022/01/24 15:25:29;;;;;;;11.50;8.60;;;2.10;77.80;;;;;;6269686;28;20266;-56
2022/01/24 15:28:31;;;;;;;17.17;9.20;;;1.80;78.50;;;;;;6257373;28;20285;-57
2022/01/24 15:31:32;;;;;;;11.67;8.90;;;1.80;79.60;;;;;;6238586;28;20221;-55
2022/01/24 15:34:35;;;;;;;13.87;10.07;;;1.80;79.00;;;;;;6236280;28;20191;-58
2022/01/24 15:37:36;;;;;;;14.87;10.07;;;1.80;78.60;;;;;;6236135;28;20189;-57
2022/01/24 15:40:39;;;;;;;10.57;8.30;;;1.80;78.80;;;;;;6237918;28;20209;-59
2022/01/24 15:43:56;;;;;;;14.63;8.93;;;1.80;79.30;;;;;;6229071;28;20246;-57
2022/01/24 15:47:17;;;;;;;10.53;7.97;;;1.80;79.00;;;;;;6225683;28;20192;-58
2022/01/24 15:50:19;;;;;;;11.87;9.30;;;1.80;79.10;;;;;;6255956;28;20191;-57
2022/01/24 15:53:20;;;;;;;12.13;9.10;;;1.80;79.30;;;;;;6232276;28;20201;-58
2022/01/24 15:59:24;;;;;;;11.97;8.00;;;1.70;79.60;;;;;;6233220;28;20309;-54
2022/01/24 16:02:25;;;;;;;10.17;8.33;;;1.60;79.70;;;;;;6228916;28;20194;-55
2022/01/24 16:05:27;;;;;;;11.53;8.37;;;1.60;79.90;;;;;;6248911;28;20202;-55
2022/01/24 16:08:28;;;;;;;12.67;8.73;;;1.50;80.40;;;;;;6245737;28;20236;-56
2022/01/24 16:11:29;;;;;;;11.83;8.57;;;1.60;80.00;;;;;;6213425;28;20198;-52
2022/01/24 16:14:30;;;;;;;11.20;8.60;;;1.50;79.90;;;;;;6228183;28;20203;-55
2022/01/24 16:17:31;;;;;;;14.60;10.83;;;1.60;80.50;;;;;;6242504;28;20218;-53
2022/01/24 16:23:45;;;;;;;14.57;9.80;;;1.50;80.80;;;;;;6233013;28;20235;-55
2022/01/24 16:26:46;;;;;;;13.27;9.50;;;1.30;80.10;;;;;;6235087;28;20194;-53
2022/01/24 16:29:49;;;;;;;12.83;9.27;;;1.30;81.10;;;;;;6242456;28;20218;-55
2022/01/24 16:32:54;;;;;;;14.30;10.17;;;1.30;81.30;;;;;;6265972;28;20205;-52
2022/01/24 16:36:03;;;;;;;14.03;9.20;;;1.50;81.30;;;;;;6250797;28;20201;-52
2022/01/24 16:39:05;;;;;;;11.23;8.77;;;1.60;80.80;;;;;;6254323;28;20202;-55
2022/01/24 16:42:13;;;;;;;12.87;9.33;;;1.70;80.80;;;;;;6253000;28;20270;-54
2022/01/24 16:47:02;;;;;;;11.47;8.27;;;1.70;80.60;;;;;;6241375;28;20205;-54
2022/01/24 16:48:39;;;;;;;14.47;9.60;;;1.60;81.10;;;;;;6219716;28;20191;-56
2022/01/24 16:51:40;;;;;;;13.27;10.07;;;1.60;80.30;;;;;;6249579;28;20691;-55
2022/01/24 16:54:44;;;;;;;13.83;10.10;;;1.60;80.30;;;;;;6233730;28;20202;-52
2022/01/24 16:57:44;;;;;;;14.73;10.73;;;1.60;80.00;;;;;;6248700;28;20562;-54
2022/01/24 17:00:47;;;;;;;12.13;9.37;;;1.70;79.80;;;;;;6229836;28;20229;-54
2022/01/24 17:03:48;;;;;;;17.20;10.37;;;1.80;79.40;;;;;;6263133;28;20186;-56
2022/01/24 17:06:50;;;;;;;14.33;10.60;;;1.70;79.40;;;;;;6233700;28;20193;-55
2022/01/24 17:09:51;;;;;;;14.17;9.47;;;1.70;79.70;;;;;;6235562;28;20289;-54
2022/01/24 17:12:57;;;;;;;14.80;10.07;;;1.70;79.50;;;;;;6240979;28;20189;-56
2022/01/24 17:16:00;;;;;;;14.20;9.90;;;1.60;80.10;;;;;;6231052;28;20198;-55
2022/01/24 17:19:02;;;;;;;15.03;10.43;;;1.60;80.00;;;;;;6262770;28;20194;-53
2022/01/24 17:22:03;;;;;;;15.53;10.83;;;1.70;79.70;;;;;;6242499;28;20241;-56
2022/01/24 17:25:04;;;;;;;16.27;10.93;;;1.60;79.50;;;;;;6256667;28;20207;-56
2022/01/24 17:28:05;;;;;;;15.83;11.13;;;1.60;79.70;;;;;;6233556;28;20201;-56
2022/01/24 17:31:06;;;;;;;17.27;11.03;;;1.60;79.90;;;;;;6274102;28;20200;-56
2022/01/24 17:34:11;;;;;;;19.10;11.27;;;1.60;79.70;;;;;;6272993;28;20193;-55
2022/01/24 17:37:12;;;;;;;17.33;11.40;;;1.40;80.10;;;;;;6253816;28;20192;-55
2022/01/24 17:40:16;;;;;;;18.03;10.43;;;1.30;81.20;;;;;;6240311;28;20213;-56
2022/01/24 17:43:16;;;;;;;16.57;10.50;;;1.50;80.20;;;;;;6256092;28;20234;-57
2022/01/24 17:46:17;;;;;;;14.30;9.70;;;1.50;79.90;;;;;;6272400;28;20200;-61
2022/01/24 17:49:18;;;;;;;14.10;10.17;;;1.40;80.60;;;;;;6246384;28;20190;-55
2022/01/24 17:52:19;;;;;;;20.13;10.90;;;1.40;80.50;;;;;;6266888;28;20204;-55
2022/01/24 17:55:21;;;;;;;19.60;11.03;;;1.40;80.10;;;;;;6249718;28;20213;-51
2022/01/24 17:58:23;;;;;;;18.00;11.23;;;1.40;80.90;;;;;;6258994;28;20228;-56
2022/01/24 18:01:24;;;;;;;17.53;11.63;;;1.40;81.10;;;;;;6265718;28;20226;-55
2022/01/24 18:04:27;;;;;;;16.30;11.30;;;1.40;80.30;;;;;;6232987;28;20195;-56
2022/01/24 18:07:28;;;;;;;19.20;12.00;;;1.40;80.50;;;;;;6238199;28;20241;-54
2022/01/24 18:10:29;;;;;;;13.00;9.93;;;1.40;80.00;;;;;;6235493;28;20221;-57
2022/01/24 18:13:30;;;;;;;16.50;10.30;;;1.30;81.30;;;;;;6228813;28;20197;-56
2022/01/24 18:16:31;;;;;;;14.80;11.47;;;1.30;81.50;;;;;;6241712;28;20189;-54
2022/01/24 18:19:32;;;;;;;19.00;11.70;;;1.30;81.60;;;;;;6245398;28;20206;-55